createdAt,value
2023-04-23T00:00:52.952Z,11.4
2023-04-23T00:01:58.366Z,11.4
2023-04-23T00:03:06.304Z,11.4
2023-04-23T00:04:13.257Z,11.4
2023-04-23T00:05:23.922Z,11.4
2023-04-23T00:06:30.882Z,11.4
2023-04-23T00:07:37.741Z,11.4
2023-04-23T00:08:44.583Z,11.4
2023-04-23T00:09:51.583Z,11.4
2023-04-23T00:10:58.349Z,11.5
2023-04-23T00:12:05.189Z,11.5
2023-04-23T00:13:12.336Z,11.5
2023-04-23T00:14:19.169Z,11.5
2023-04-23T00:15:26.113Z,11.5
2023-04-23T00:16:34.894Z,11.5
2023-04-23T00:17:41.846Z,11.5
2023-04-23T00:18:48.677Z,11.4
2023-04-23T00:19:56.412Z,11.4
2023-04-23T00:21:03.272Z,11.5
2023-04-23T00:22:10.187Z,11.4
2023-04-23T00:23:19.826Z,11.4
2023-04-23T00:24:26.744Z,11.4
2023-04-23T00:25:34.985Z,11.4
2023-04-23T00:26:41.824Z,11.4
2023-04-23T00:27:48.752Z,11.4
2023-04-23T00:28:55.732Z,11.4
2023-04-23T00:30:02.924Z,11.4
2023-04-23T00:31:10.020Z,11.4
2023-04-23T00:32:17.956Z,11.5
2023-04-23T00:33:24.638Z,11.4
2023-04-23T00:34:32.319Z,11.4
2023-04-23T00:35:39.172Z,11.4
2023-04-23T00:36:46.098Z,11.4
2023-04-23T00:37:52.953Z,11.4
2023-04-23T00:38:59.814Z,11.4
2023-04-23T00:40:07.550Z,11.3
2023-04-23T00:41:14.477Z,11.3
2023-04-23T00:42:21.342Z,11.2
2023-04-23T00:43:28.446Z,11.2
2023-04-23T00:44:35.358Z,11.3
2023-04-23T00:45:42.243Z,11.4
2023-04-23T00:46:49.146Z,11.4
2023-04-23T00:47:55.993Z,11.3
2023-04-23T00:49:03.755Z,11.4
2023-04-23T00:50:10.641Z,11.4
2023-04-23T00:51:17.462Z,11.4
2023-04-23T00:52:24.389Z,11.4
2023-04-23T00:53:31.266Z,11.4
2023-04-23T00:54:41.267Z,11.4
2023-04-23T00:55:47.893Z,11.4
2023-04-23T00:56:54.830Z,11.3
2023-04-23T00:58:01.702Z,11.3
2023-04-23T00:59:08.594Z,11.3
2023-04-23T01:00:15.591Z,11.3
2023-04-23T01:01:22.528Z,11.3
2023-04-23T01:02:29.408Z,11.2
2023-04-23T01:03:36.363Z,11.3
2023-04-23T01:04:43.354Z,11.3
2023-04-23T01:05:50.142Z,11.3
2023-04-23T01:06:56.987Z,11.2
2023-04-23T01:08:03.806Z,11.2
2023-04-23T01:09:10.705Z,11.2
2023-04-23T01:10:17.620Z,11.2
2023-04-23T01:11:24.446Z,11.2
2023-04-23T01:12:31.367Z,11.2
2023-04-23T01:13:38.443Z,11.2
2023-04-23T01:14:45.324Z,11.1
2023-04-23T01:15:52.185Z,11.1
2023-04-23T01:16:59.074Z,11.1
2023-04-23T01:18:05.996Z,11.1
2023-04-23T01:19:12.818Z,11.1
2023-04-23T01:20:20.046Z,11.1
2023-04-23T01:21:26.874Z,11.1
2023-04-23T01:22:33.688Z,11.1
2023-04-23T01:23:40.559Z,11.1
2023-04-23T01:24:48.185Z,11.1
2023-04-23T01:25:55.224Z,11.1
2023-04-23T01:27:02.040Z,11.1
2023-04-23T01:28:09.023Z,11
2023-04-23T01:29:17.897Z,11
2023-04-23T01:30:24.817Z,11
2023-04-23T01:31:31.664Z,11
2023-04-23T01:32:38.479Z,11
2023-04-23T01:33:47.731Z,11
2023-04-23T01:34:54.538Z,10.9
2023-04-23T01:36:01.360Z,11
2023-04-23T01:37:08.456Z,11
2023-04-23T01:38:15.407Z,11
2023-04-23T01:39:22.233Z,10.9
2023-04-23T01:40:29.040Z,11
2023-04-23T01:41:35.854Z,10.9
2023-04-23T01:42:42.798Z,10.9
2023-04-23T01:43:49.694Z,10.9
2023-04-23T01:44:56.505Z,10.9
2023-04-23T01:46:03.478Z,10.9
2023-04-23T01:47:10.383Z,10.9
2023-04-23T01:48:17.163Z,10.9
2023-04-23T01:49:23.994Z,10.9
2023-04-23T01:50:30.841Z,10.9
2023-04-23T01:51:37.714Z,11
2023-04-23T01:52:45.345Z,11
2023-04-23T01:53:52.183Z,11
2023-04-23T01:54:59.010Z,11
2023-04-23T01:56:05.903Z,11
2023-04-23T01:57:12.722Z,11
2023-04-23T01:58:19.654Z,11
2023-04-23T01:59:26.457Z,11
2023-04-23T02:00:33.234Z,11
2023-04-23T02:01:40.141Z,11
2023-04-23T02:02:49.565Z,11
2023-04-23T02:03:56.471Z,10.9
2023-04-23T02:05:03.357Z,10.9
2023-04-23T02:06:10.474Z,10.8
2023-04-23T02:07:17.396Z,10.8
2023-04-23T02:08:24.261Z,10.7
2023-04-23T02:09:32.136Z,10.7
2023-04-23T02:10:41.663Z,10.7
2023-04-23T02:11:48.485Z,10.7
2023-04-23T02:12:55.350Z,10.7
2023-04-23T02:14:02.317Z,10.6
2023-04-23T02:15:09.186Z,10.6
2023-04-23T02:16:16.088Z,10.6
2023-04-23T02:17:23.169Z,10.5
2023-04-23T02:18:29.799Z,10.5
2023-04-23T02:19:36.724Z,10.5
2023-04-23T02:20:43.495Z,10.4
2023-04-23T02:21:50.428Z,10.4
2023-04-23T02:22:58.150Z,10.4
2023-04-23T02:24:05.008Z,10.3
2023-04-23T02:25:11.873Z,10.3
2023-04-23T02:26:18.733Z,10.3
2023-04-23T02:27:25.666Z,10.3
2023-04-23T02:28:32.597Z,10.3
2023-04-23T02:29:39.497Z,10.3
2023-04-23T02:30:46.361Z,10.3
2023-04-23T02:31:53.423Z,10.3
2023-04-23T02:33:01.149Z,10.3
2023-04-23T02:34:07.859Z,10.3
2023-04-23T02:35:14.728Z,10.3
2023-04-23T02:36:21.597Z,10.3
2023-04-23T02:37:28.436Z,10.3
2023-04-23T02:38:37.734Z,10.3
2023-04-23T02:39:47.305Z,10.2
2023-04-23T02:40:54.159Z,10.2
2023-04-23T02:42:01.009Z,10.2
2023-04-23T02:43:07.904Z,10.2
2023-04-23T02:44:14.692Z,10.2
2023-04-23T02:45:21.598Z,10.3
2023-04-23T02:46:28.508Z,10.3
2023-04-23T02:47:35.436Z,10.3
2023-04-23T02:48:42.276Z,10.3
2023-04-23T02:49:49.129Z,10.3
2023-04-23T02:50:56.026Z,10.3
2023-04-23T02:52:02.982Z,10.3
2023-04-23T02:53:09.821Z,10.3
2023-04-23T02:54:16.751Z,10.3
2023-04-23T02:55:23.569Z,10.3
2023-04-23T02:56:30.752Z,10.3
2023-04-23T02:57:37.729Z,10.2
2023-04-23T02:58:45.472Z,10.3
2023-04-23T02:59:52.320Z,10.3
2023-04-23T03:01:00.857Z,10.3
2023-04-23T03:02:07.837Z,10.3
2023-04-23T03:03:14.668Z,10.2
2023-04-23T03:04:21.502Z,10.3
2023-04-23T03:05:28.394Z,10.3
2023-04-23T03:06:35.332Z,10.3
2023-04-23T03:07:43.491Z,10.3
2023-04-23T03:08:50.280Z,10.3
2023-04-23T03:09:57.103Z,10.2
2023-04-23T03:11:04.072Z,10.2
2023-04-23T03:12:11.120Z,10.2
2023-04-23T03:13:17.960Z,10.2
2023-04-23T03:14:24.885Z,10.2
2023-04-23T03:15:33.141Z,10.3
2023-04-23T03:16:40.183Z,10.3
2023-04-23T03:17:47.135Z,10.3
2023-04-23T03:18:53.964Z,10.3
2023-04-23T03:20:00.916Z,10.3
2023-04-23T03:21:07.968Z,10.3
2023-04-23T03:22:14.994Z,10.3
2023-04-23T03:23:21.803Z,10.2
2023-04-23T03:24:28.666Z,10.3
2023-04-23T03:25:38.616Z,10.3
2023-04-23T03:26:45.492Z,10.3
2023-04-23T03:27:52.339Z,10.3
2023-04-23T03:28:59.244Z,10.3
2023-04-23T03:30:06.268Z,10.3
2023-04-23T03:31:13.332Z,10.3
2023-04-23T03:32:20.111Z,10.3
2023-04-23T03:33:26.953Z,10.2
2023-04-23T03:34:33.769Z,10.2
2023-04-23T03:35:40.844Z,10.2
2023-04-23T03:36:47.851Z,10.2
2023-04-23T03:37:54.783Z,10.1
2023-04-23T03:39:01.624Z,10.2
2023-04-23T03:40:08.596Z,10.1
2023-04-23T03:41:15.892Z,10.2
2023-04-23T03:42:22.782Z,10.1
2023-04-23T03:43:29.593Z,10.1
2023-04-23T03:44:36.486Z,10.1
2023-04-23T03:45:43.495Z,10.1
2023-04-23T03:46:50.277Z,10.1
2023-04-23T03:47:57.937Z,10.1
2023-04-23T03:49:04.985Z,10.1
2023-04-23T03:50:12.036Z,10.1
2023-04-23T03:51:19.841Z,10.1
2023-04-23T03:52:26.676Z,10
2023-04-23T03:53:33.471Z,10
2023-04-23T03:54:40.749Z,10
2023-04-23T03:55:47.393Z,10
2023-04-23T03:56:54.242Z,10
2023-04-23T03:58:01.126Z,10
2023-04-23T03:59:07.959Z,10
2023-04-23T04:00:14.850Z,10
2023-04-23T04:01:21.876Z,10
2023-04-23T04:02:28.761Z,10
2023-04-23T04:03:35.713Z,10
2023-04-23T04:04:42.801Z,10
2023-04-23T04:05:49.455Z,10
2023-04-23T04:06:56.284Z,10
2023-04-23T04:08:03.129Z,10
2023-04-23T04:09:09.949Z,10
2023-04-23T04:10:16.836Z,10.1
2023-04-23T04:11:23.803Z,10.1
2023-04-23T04:12:30.648Z,10.1
2023-04-23T04:13:37.461Z,10
2023-04-23T04:14:44.374Z,10
2023-04-23T04:15:51.424Z,10
2023-04-23T04:16:58.195Z,10
2023-04-23T04:18:05.040Z,10
2023-04-23T04:19:11.908Z,10
2023-04-23T04:20:18.883Z,10
2023-04-23T04:21:25.738Z,10.1
2023-04-23T04:22:32.577Z,10.1
2023-04-23T04:23:39.473Z,10.1
2023-04-23T04:24:46.341Z,10
2023-04-23T04:25:53.204Z,10
2023-04-23T04:27:00.380Z,10.1
2023-04-23T04:28:07.332Z,10.2
2023-04-23T04:29:14.183Z,10.2
2023-04-23T04:30:21.173Z,10.3
2023-04-23T04:31:28.209Z,10.3
2023-04-23T04:32:35.117Z,10.2
2023-04-23T04:33:41.880Z,10.3
2023-04-23T04:34:48.678Z,10.3
2023-04-23T04:35:55.804Z,10.4
2023-04-23T04:37:02.742Z,10.4
2023-04-23T04:38:09.600Z,10.4
2023-04-23T04:39:16.422Z,10.4
2023-04-23T04:40:23.417Z,10.4
2023-04-23T04:41:30.375Z,10.4
2023-04-23T04:42:37.230Z,10.5
2023-04-23T04:43:44.023Z,10.5
2023-04-23T04:44:50.907Z,10.5
2023-04-23T04:45:57.787Z,10.5
2023-04-23T04:47:05.606Z,10.6
2023-04-23T04:48:13.344Z,10.6
2023-04-23T04:49:20.111Z,10.6
2023-04-23T04:50:27.987Z,10.6
2023-04-23T04:51:34.803Z,10.7
2023-04-23T04:52:41.595Z,10.7
2023-04-23T04:53:48.548Z,10.8
2023-04-23T04:54:56.319Z,10.7
2023-04-23T04:56:03.207Z,10.7
2023-04-23T04:57:10.078Z,10.8
2023-04-23T04:58:16.946Z,10.8
2023-04-23T04:59:23.798Z,10.8
2023-04-23T05:00:30.660Z,10.9
2023-04-23T05:01:37.628Z,10.9
2023-04-23T05:02:44.496Z,10.9
2023-04-23T05:03:51.382Z,11
2023-04-23T05:05:00.671Z,10.9
2023-04-23T05:06:08.618Z,11
2023-04-23T05:07:15.418Z,11
2023-04-23T05:08:22.123Z,11
2023-04-23T05:09:29.086Z,11.1
2023-04-23T05:10:35.936Z,11.1
2023-04-23T05:11:42.783Z,11.1
2023-04-23T05:12:49.579Z,11.1
2023-04-23T05:13:56.366Z,11.2
2023-04-23T05:15:03.448Z,11.2
2023-04-23T05:16:13.590Z,11.2
2023-04-23T05:17:20.459Z,11.2
2023-04-23T05:18:27.172Z,11.3
2023-04-23T05:19:34.175Z,11.3
2023-04-23T05:20:40.999Z,11.4
2023-04-23T05:21:47.822Z,11.3
2023-04-23T05:22:54.653Z,11.5
2023-04-23T05:24:01.678Z,11.5
2023-04-23T05:25:08.703Z,11.5
2023-04-23T05:26:15.589Z,11.6
2023-04-23T05:27:22.401Z,11.5
2023-04-23T05:28:29.343Z,11.6
2023-04-23T05:29:36.143Z,11.7
2023-04-23T05:30:43.026Z,11.8
2023-04-23T05:31:49.897Z,11.8
2023-04-23T05:32:57.666Z,11.9
2023-04-23T05:34:05.761Z,12
2023-04-23T05:35:12.660Z,12
2023-04-23T05:36:19.424Z,12
2023-04-23T05:37:26.225Z,12.1
2023-04-23T05:38:33.076Z,12.2
2023-04-23T05:39:40.041Z,12.3
2023-04-23T05:40:48.011Z,12.3
2023-04-23T05:41:54.856Z,12.4
2023-04-23T05:43:01.723Z,12.4
2023-04-23T05:44:08.597Z,12.4
2023-04-23T05:45:15.462Z,12.5
2023-04-23T05:46:22.275Z,12.6
2023-04-23T05:47:29.166Z,12.6
2023-04-23T05:48:36.014Z,12.6
2023-04-23T05:49:42.784Z,12.6
2023-04-23T05:50:50.127Z,12.7
2023-04-23T05:51:58.848Z,12.8
2023-04-23T05:53:05.663Z,12.8
2023-04-23T05:54:12.496Z,12.9
2023-04-23T05:55:20.589Z,13
2023-04-23T05:56:27.522Z,13
2023-04-23T05:57:34.391Z,13.1
2023-04-23T05:58:45.110Z,13.2
2023-04-23T05:59:52.271Z,13.2
2023-04-23T06:00:59.944Z,13.3
2023-04-23T06:02:07.025Z,13.5
2023-04-23T06:03:14.062Z,13.5
2023-04-23T06:04:20.984Z,13.6
2023-04-23T06:05:28.579Z,13.5
2023-04-23T06:06:35.449Z,13.6
2023-04-23T06:07:42.317Z,13.7
2023-04-23T06:08:50.252Z,13.8
2023-04-23T06:09:57.091Z,13.9
2023-04-23T06:11:03.912Z,13.8
2023-04-23T06:12:10.708Z,13.9
2023-04-23T06:13:17.675Z,14
2023-04-23T06:14:24.654Z,14.1
2023-04-23T06:15:32.011Z,14.1
2023-04-23T06:16:38.809Z,14.1
2023-04-23T06:17:45.652Z,14.2
2023-04-23T06:18:53.422Z,14.3
2023-04-23T06:20:00.293Z,14.4
2023-04-23T06:21:07.692Z,14.4
2023-04-23T06:22:14.699Z,14.6
2023-04-23T06:23:21.530Z,14.7
2023-04-23T06:24:28.579Z,14.7
2023-04-23T06:25:37.625Z,14.8
2023-04-23T06:26:44.812Z,14.9
2023-04-23T06:27:51.971Z,14.9
2023-04-23T06:28:58.934Z,15.1
2023-04-23T06:30:05.765Z,15.3
2023-04-23T06:31:12.762Z,15.4
2023-04-23T06:32:20.834Z,15.5
2023-04-23T06:33:30.140Z,15.7
2023-04-23T06:34:44.066Z,15.8
2023-04-23T06:35:53.599Z,15.9
2023-04-23T06:37:00.494Z,15.7
2023-04-23T06:38:07.289Z,15.9
2023-04-23T06:39:15.079Z,15.8
2023-04-23T06:40:22.059Z,15.7
2023-04-23T06:41:29.885Z,15.7
2023-04-23T06:42:36.704Z,15.8
2023-04-23T06:43:43.564Z,15.7
2023-04-23T06:44:50.583Z,15.9
2023-04-23T06:45:57.587Z,16.1
2023-04-23T06:47:04.508Z,16.2
2023-04-23T06:48:11.477Z,16.4
2023-04-23T06:49:18.315Z,16.2
2023-04-23T06:50:25.462Z,16.2
2023-04-23T06:51:33.349Z,16.3
2023-04-23T06:52:40.156Z,16.7
2023-04-23T06:53:47.086Z,16.7
2023-04-23T06:54:53.908Z,16.9
2023-04-23T06:56:00.888Z,16.8
2023-04-23T06:57:07.710Z,16.8
2023-04-23T06:58:15.992Z,17
2023-04-23T06:59:21.329Z,16.8
2023-04-23T07:00:28.148Z,16.7
2023-04-23T07:01:35.397Z,16.8
2023-04-23T07:02:43.305Z,17.1
2023-04-23T07:03:50.437Z,17.2
2023-04-23T07:04:57.055Z,17.2
2023-04-23T07:06:04.034Z,17.3
2023-04-23T07:07:11.106Z,17.4
2023-04-23T07:08:18.018Z,17.3
2023-04-23T07:09:25.826Z,17.5
2023-04-23T07:10:33.572Z,17.3
2023-04-23T07:11:41.383Z,17.4
2023-04-23T07:12:48.257Z,17.4
2023-04-23T07:13:56.195Z,17.4
2023-04-23T07:15:03.133Z,17.4
2023-04-23T07:16:11.297Z,17.4
2023-04-23T07:17:18.164Z,17.5
2023-04-23T07:18:25.856Z,17.5
2023-04-23T07:19:32.868Z,17.4
2023-04-23T07:20:40.631Z,17.6
2023-04-23T07:21:47.513Z,17.8
2023-04-23T07:22:54.307Z,17.6
2023-04-23T07:24:01.172Z,17.7
2023-04-23T07:25:08.174Z,17.6
2023-04-23T07:26:15.062Z,17.6
2023-04-23T07:27:21.879Z,17.9
2023-04-23T07:28:28.779Z,17.9
2023-04-23T07:29:35.596Z,17.7
2023-04-23T07:30:43.418Z,17.9
2023-04-23T07:31:50.421Z,18.1
2023-04-23T07:32:57.319Z,17.9
2023-04-23T07:34:04.123Z,17.8
2023-04-23T07:35:11.088Z,18.1
2023-04-23T07:36:17.951Z,18.2
2023-04-23T07:37:25.378Z,18.4
2023-04-23T07:38:32.154Z,18.1
2023-04-23T07:39:40.030Z,18
2023-04-23T07:40:45.895Z,18
2023-04-23T07:41:52.889Z,18.1
2023-04-23T07:42:59.765Z,18.3
2023-04-23T07:44:06.597Z,18.3
2023-04-23T07:45:13.477Z,18.4
2023-04-23T07:46:20.318Z,18.7
2023-04-23T07:47:27.158Z,18.7
2023-04-23T07:48:34.016Z,18.6
2023-04-23T07:49:41.040Z,18.8
2023-04-23T07:50:47.980Z,18.5
2023-04-23T07:51:54.999Z,18.3
2023-04-23T07:53:01.852Z,18.4
2023-04-23T07:54:08.708Z,18.4
2023-04-23T07:55:15.608Z,18.6
2023-04-23T07:56:22.516Z,18.5
2023-04-23T07:57:29.315Z,18.8
2023-04-23T07:58:37.841Z,19.1
2023-04-23T07:59:45.067Z,19.3
2023-04-23T08:00:52.068Z,19.2
2023-04-23T08:01:58.901Z,19
2023-04-23T08:03:06.097Z,19.1
2023-04-23T08:04:13.259Z,18.9
2023-04-23T08:05:19.858Z,18.8
2023-04-23T08:06:27.578Z,19.1
2023-04-23T08:07:34.409Z,19.5
2023-04-23T08:08:41.347Z,19.7
2023-04-23T08:09:48.523Z,19.9
2023-04-23T08:10:55.200Z,19.8
2023-04-23T08:12:02.932Z,19.6
2023-04-23T08:13:09.757Z,19.5
2023-04-23T08:14:17.491Z,19.3
2023-04-23T08:15:24.307Z,19.7
2023-04-23T08:16:32.108Z,19.7
2023-04-23T08:17:38.903Z,19.4
2023-04-23T08:18:58.085Z,19.5
2023-04-23T08:19:54.399Z,19.6
2023-04-23T08:21:01.307Z,19.3
2023-04-23T08:22:08.142Z,19.5
2023-04-23T08:23:14.987Z,19.8
2023-04-23T08:24:21.893Z,19.9
2023-04-23T08:25:28.738Z,19.8
2023-04-23T08:26:35.701Z,19.8
2023-04-23T08:27:43.733Z,19.9
2023-04-23T08:28:50.586Z,20
2023-04-23T08:29:57.573Z,19.8
2023-04-23T08:31:12.134Z,20
2023-04-23T08:32:11.248Z,20.1
2023-04-23T08:33:18.046Z,20.4
2023-04-23T08:34:24.885Z,20.4
2023-04-23T08:35:31.813Z,20.5
2023-04-23T08:36:38.758Z,20.4
2023-04-23T08:37:45.643Z,20.4
2023-04-23T08:38:52.462Z,20.5
2023-04-23T08:39:59.411Z,20.4
2023-04-23T08:41:06.257Z,20.2
2023-04-23T08:42:13.129Z,19.8
2023-04-23T08:43:27.879Z,20.1
2023-04-23T08:44:34.709Z,20.3
2023-04-23T08:45:41.560Z,20.5
2023-04-23T08:46:51.013Z,20.5
2023-04-23T08:47:59.024Z,20.5
2023-04-23T08:49:05.656Z,20.4
2023-04-23T08:50:12.469Z,20.3
2023-04-23T08:51:22.034Z,20.5
2023-04-23T08:52:28.854Z,20.8
2023-04-23T08:53:35.743Z,20.5
2023-04-23T08:54:42.567Z,20.7
2023-04-23T08:55:49.412Z,20.8
2023-04-23T08:56:56.274Z,20.8
2023-04-23T08:58:03.188Z,20.8
2023-04-23T08:59:10.190Z,21
2023-04-23T09:00:17.005Z,20.9
2023-04-23T09:01:23.965Z,20.9
2023-04-23T09:02:30.846Z,20.9
2023-04-23T09:03:37.819Z,20.9
2023-04-23T09:04:44.794Z,21.1
2023-04-23T09:05:51.698Z,21.3
2023-04-23T09:06:58.519Z,21.4
2023-04-23T09:08:06.266Z,21.6
2023-04-23T09:09:14.102Z,21.4
2023-04-23T09:10:20.993Z,21.4
2023-04-23T09:11:27.807Z,21.3
2023-04-23T09:12:34.720Z,21.4
2023-04-23T09:13:41.586Z,21.3
2023-04-23T09:14:49.597Z,21.3
2023-04-23T09:15:56.486Z,21.4
2023-04-23T09:17:04.217Z,21.5
2023-04-23T09:18:11.276Z,21.7
2023-04-23T09:19:17.894Z,21.6
2023-04-23T09:20:24.759Z,21.5
2023-04-23T09:21:31.693Z,21.3
2023-04-23T09:22:38.583Z,21.4
2023-04-23T09:23:49.341Z,21.6
2023-04-23T09:24:56.247Z,21.7
2023-04-23T09:26:03.149Z,21.7
2023-04-23T09:27:10.099Z,21.9
2023-04-23T09:28:16.951Z,21.8
2023-04-23T09:29:23.907Z,21.2
2023-04-23T09:30:30.744Z,21.6
2023-04-23T09:31:42.717Z,21.7
2023-04-23T09:32:49.654Z,21.8
2023-04-23T09:33:57.398Z,21.9
2023-04-23T09:35:04.378Z,21.9
2023-04-23T09:36:13.295Z,22
2023-04-23T09:37:20.070Z,22.1
2023-04-23T09:38:29.775Z,22.2
2023-04-23T09:39:36.722Z,22.1
2023-04-23T09:40:43.523Z,22.2
2023-04-23T09:41:50.300Z,22.3
2023-04-23T09:42:58.328Z,22.4
2023-04-23T09:44:05.148Z,22.2
2023-04-23T09:45:14.986Z,22
2023-04-23T09:46:22.982Z,22.1
2023-04-23T09:47:35.143Z,22
2023-04-23T09:48:42.779Z,21.8
2023-04-23T09:49:51.543Z,21.6
2023-04-23T09:50:59.640Z,21.7
2023-04-23T09:52:06.577Z,21.9
2023-04-23T09:53:13.426Z,21.9
2023-04-23T09:54:20.256Z,21.5
2023-04-23T09:55:27.143Z,21.7
2023-04-23T09:56:39.783Z,21.7
2023-04-23T09:57:46.597Z,21.9
2023-04-23T09:58:53.400Z,21.7
2023-04-23T10:00:11.316Z,21.9
2023-04-23T10:01:17.522Z,21.8
2023-04-23T10:02:24.476Z,21.8
2023-04-23T10:03:31.392Z,21.3
2023-04-23T10:04:38.324Z,21.3
2023-04-23T10:06:00.078Z,21.5
2023-04-23T10:07:07.458Z,21.8
2023-04-23T10:07:59.503Z,21.9
2023-04-23T10:09:06.427Z,22
2023-04-23T10:10:13.339Z,21.8
2023-04-23T10:11:20.853Z,21.8
2023-04-23T10:12:44.538Z,21.6
2023-04-23T10:13:33.921Z,21.3
2023-04-23T10:14:40.879Z,21.3
2023-04-23T10:15:47.838Z,21.5
2023-04-23T10:16:54.581Z,21.7
2023-04-23T10:18:04.325Z,21.8
2023-04-23T10:19:11.106Z,21.9
2023-04-23T10:20:18.153Z,21.7
2023-04-23T10:21:25.870Z,21.9
2023-04-23T10:22:32.644Z,22.1
2023-04-23T10:23:39.438Z,22
2023-04-23T10:24:48.694Z,21.8
2023-04-23T10:25:53.282Z,21.8
2023-04-23T10:27:01.933Z,22
2023-04-23T10:28:06.994Z,21.9
2023-04-23T10:29:14.811Z,21.9
2023-04-23T10:30:21.649Z,22
2023-04-23T10:31:28.541Z,22.1
2023-04-23T10:32:35.419Z,22.1
2023-04-23T10:33:49.723Z,21.6
2023-04-23T10:34:49.241Z,21.7
2023-04-23T10:35:56.191Z,21.9
2023-04-23T10:37:03.143Z,22.2
2023-04-23T10:38:10.054Z,22.3
2023-04-23T10:39:23.956Z,22.3
2023-04-23T10:40:23.796Z,22.2
2023-04-23T10:41:33.133Z,22.1
2023-04-23T10:42:40.087Z,22.2
2023-04-23T10:43:46.917Z,22.2
2023-04-23T10:44:59.298Z,22.3
2023-04-23T10:46:03.253Z,22.2
2023-04-23T10:47:10.133Z,22.2
2023-04-23T10:48:19.812Z,22.2
2023-04-23T10:49:26.663Z,22
2023-04-23T10:50:34.146Z,21.8
2023-04-23T10:52:50.199Z,21.9
2023-04-23T10:53:57.040Z,22.3
2023-04-23T10:55:03.896Z,22.4
2023-04-23T10:56:10.851Z,22.4
2023-04-23T10:57:17.732Z,22.5
2023-04-23T10:58:24.598Z,22.4
2023-04-23T10:59:31.480Z,22.6
2023-04-23T11:00:38.384Z,22.7
2023-04-23T11:01:45.295Z,22.6
2023-04-23T11:02:58.272Z,22.7
2023-04-23T11:04:05.170Z,22.7
2023-04-23T11:05:22.261Z,22.7
2023-04-23T11:06:29.052Z,22.5
2023-04-23T11:07:46.193Z,22.4
2023-04-23T11:09:04.256Z,22.6
2023-04-23T11:10:22.289Z,22.6
2023-04-23T11:11:29.252Z,22.8
2023-04-23T11:12:44.034Z,23
2023-04-23T11:13:50.948Z,22.9
2023-04-23T11:14:58.891Z,23.1
2023-04-23T11:16:16.236Z,23.2
2023-04-23T11:17:25.727Z,23.1
2023-04-23T11:18:35.240Z,23.3
2023-04-23T11:19:52.493Z,23.1
2023-04-23T11:21:07.277Z,22.9
2023-04-23T11:22:14.063Z,22.9
2023-04-23T11:23:20.868Z,22.9
2023-04-23T11:24:32.924Z,23
2023-04-23T11:25:45.709Z,22.6
2023-04-23T11:26:52.556Z,22.6
2023-04-23T11:27:59.416Z,22.8
2023-04-23T11:29:06.268Z,22.4
2023-04-23T11:30:14.166Z,22.5
2023-04-23T11:31:21.001Z,22.7
2023-04-23T11:32:28.910Z,22.4
2023-04-23T11:33:35.681Z,22.3
2023-04-23T11:34:42.598Z,22.6
2023-04-23T11:35:50.010Z,22.5
2023-04-23T11:36:56.975Z,22.7
2023-04-23T11:38:03.785Z,22.9
2023-04-23T11:39:13.674Z,23
2023-04-23T11:40:20.648Z,22.9
2023-04-23T11:41:27.564Z,22.6
2023-04-23T11:42:35.096Z,22.9
2023-04-23T11:43:47.617Z,22.9
2023-04-23T11:44:54.529Z,23
2023-04-23T11:46:02.313Z,23.1
2023-04-23T11:47:09.088Z,22.9
2023-04-23T11:48:17.471Z,23.1
2023-04-23T11:49:25.520Z,23
2023-04-23T11:50:32.534Z,23.2
2023-04-23T11:51:40.202Z,23.2
2023-04-23T11:52:47.084Z,22.8
2023-04-23T11:53:53.831Z,22.5
2023-04-23T11:55:00.662Z,22.5
2023-04-23T11:56:10.317Z,22.5
2023-04-23T11:57:19.792Z,22.7
2023-04-23T11:58:26.617Z,22.7
2023-04-23T11:59:33.504Z,22.8
2023-04-23T12:00:40.459Z,22.9
2023-04-23T12:01:47.343Z,23.1
2023-04-23T12:02:57.247Z,23.3
2023-04-23T12:04:04.363Z,22.6
2023-04-23T12:05:16.119Z,22.4
2023-04-23T12:06:31.063Z,22.5
2023-04-23T12:07:37.955Z,22.5
2023-04-23T12:08:44.808Z,22.6
2023-04-23T12:09:51.756Z,22.6
2023-04-23T12:10:58.732Z,22.7
2023-04-23T12:12:05.625Z,22.7
2023-04-23T12:13:12.580Z,22.9
2023-04-23T12:14:19.435Z,22.7
2023-04-23T12:15:29.789Z,22.5
2023-04-23T12:16:36.859Z,22.5
2023-04-23T12:17:49.292Z,22.5
2023-04-23T12:18:56.243Z,22.6
2023-04-23T12:20:03.196Z,22.4
2023-04-23T12:21:10.454Z,22.6
2023-04-23T12:22:17.290Z,22.7
2023-04-23T12:23:24.179Z,22.7
2023-04-23T12:24:32.058Z,22.4
2023-04-23T12:25:49.245Z,22.2
2023-04-23T12:26:56.323Z,22.3
2023-04-23T12:28:03.250Z,22.4
2023-04-23T12:29:10.154Z,22.7
2023-04-23T12:30:17.092Z,22.6
2023-04-23T12:31:24.016Z,22.6
2023-04-23T12:32:33.656Z,22.5
2023-04-23T12:33:40.671Z,22.6
2023-04-23T12:34:47.952Z,22.5
2023-04-23T12:35:57.844Z,22.4
2023-04-23T12:37:04.772Z,22.3
2023-04-23T12:38:11.684Z,22.2
2023-04-23T12:39:23.734Z,22.3
2023-04-23T12:40:30.614Z,22.6
2023-04-23T12:41:37.421Z,22.8
2023-04-23T12:42:44.282Z,23
2023-04-23T12:43:51.921Z,23.1
2023-04-23T12:44:58.725Z,23.1
2023-04-23T12:46:11.586Z,23.3
2023-04-23T12:47:18.376Z,23.3
2023-04-23T12:48:25.227Z,23.4
2023-04-23T12:49:32.796Z,23.2
2023-04-23T12:50:39.700Z,23.3
2023-04-23T12:51:46.624Z,23.3
2023-04-23T12:52:53.556Z,23.5
2023-04-23T12:54:00.414Z,23.3
2023-04-23T12:55:07.322Z,23.5
2023-04-23T12:56:14.202Z,23.6
2023-04-23T12:57:21.913Z,23.6
2023-04-23T12:58:28.837Z,23.5
2023-04-23T12:59:35.834Z,23.4
2023-04-23T13:00:42.649Z,23.3
2023-04-23T13:01:50.142Z,23.4
2023-04-23T13:02:57.081Z,23.4
2023-04-23T13:04:03.592Z,23.2
2023-04-23T13:05:11.465Z,23
2023-04-23T13:06:18.335Z,23
2023-04-23T13:07:25.276Z,23
2023-04-23T13:08:32.110Z,23
2023-04-23T13:09:38.976Z,22.9
2023-04-23T13:10:45.750Z,23.2
2023-04-23T13:11:52.585Z,23.3
2023-04-23T13:12:59.435Z,23.4
2023-04-23T13:14:06.347Z,23.3
2023-04-23T13:15:13.219Z,23.3
2023-04-23T13:16:20.104Z,23.5
2023-04-23T13:17:26.940Z,23.4
2023-04-23T13:18:33.798Z,23.6
2023-04-23T13:19:40.857Z,23.6
2023-04-23T13:20:48.330Z,23.7
2023-04-23T13:21:55.144Z,23.6
2023-04-23T13:23:02.002Z,23.8
2023-04-23T13:24:11.104Z,23.7
2023-04-23T13:25:18.992Z,23.8
2023-04-23T13:26:25.868Z,23.7
2023-04-23T13:27:35.583Z,23.6
2023-04-23T13:28:42.404Z,23.6
2023-04-23T13:29:49.270Z,23.5
2023-04-23T13:30:56.184Z,23.4
2023-04-23T13:32:03.988Z,23.2
2023-04-23T13:33:10.854Z,23.2
2023-04-23T13:34:18.764Z,23.1
2023-04-23T13:35:25.673Z,23.1
2023-04-23T13:36:32.564Z,23.1
2023-04-23T13:37:39.380Z,23
2023-04-23T13:38:46.302Z,23
2023-04-23T13:39:53.142Z,22.9
2023-04-23T13:40:59.959Z,23
2023-04-23T13:42:09.754Z,23
2023-04-23T13:43:13.725Z,23
2023-04-23T13:44:20.610Z,23.1
2023-04-23T13:45:28.360Z,23
2023-04-23T13:46:35.163Z,22.9
2023-04-23T13:47:42.163Z,23
2023-04-23T13:48:48.980Z,22.8
2023-04-23T13:49:58.517Z,22.8
2023-04-23T13:51:17.252Z,22.9
2023-04-23T13:52:15.264Z,22.5
2023-04-23T13:53:22.132Z,22.5
2023-04-23T13:54:30.057Z,22.6
2023-04-23T13:55:36.953Z,22.6
2023-04-23T13:56:44.810Z,22.5
2023-04-23T13:57:51.663Z,22.4
2023-04-23T13:59:11.995Z,22.5
2023-04-23T14:00:08.214Z,22.6
2023-04-23T14:01:15.226Z,22.7
2023-04-23T14:02:22.306Z,22.8
2023-04-23T14:03:29.097Z,22.8
2023-04-23T14:04:35.925Z,22.6
2023-04-23T14:05:42.794Z,22.5
2023-04-23T14:06:49.666Z,22.7
2023-04-23T14:07:56.479Z,22.8
2023-04-23T14:09:03.366Z,22.8
2023-04-23T14:10:10.283Z,22.8
2023-04-23T14:11:17.101Z,22.7
2023-04-23T14:12:23.928Z,22.6
2023-04-23T14:13:30.813Z,22.5
2023-04-23T14:14:37.745Z,22.6
2023-04-23T14:15:45.544Z,22.6
2023-04-23T14:16:52.385Z,22.7
2023-04-23T14:17:59.342Z,22.6
2023-04-23T14:19:06.956Z,22.7
2023-04-23T14:20:13.754Z,22.8
2023-04-23T14:21:20.620Z,22.9
2023-04-23T14:22:27.411Z,22.9
2023-04-23T14:23:34.317Z,22.9
2023-04-23T14:24:46.459Z,23
2023-04-23T14:25:53.322Z,23
2023-04-23T14:27:04.398Z,23
2023-04-23T14:28:09.963Z,23
2023-04-23T14:29:27.101Z,23.1
2023-04-23T14:30:34.015Z,23.2
2023-04-23T14:31:41.018Z,23.4
2023-04-23T14:32:49.862Z,23.4
2023-04-23T14:33:55.527Z,23.4
2023-04-23T14:35:02.452Z,23.4
2023-04-23T14:36:09.636Z,23.4
2023-04-23T14:37:16.528Z,23.4
2023-04-23T14:38:23.424Z,23.4
2023-04-23T14:39:30.263Z,23.2
2023-04-23T14:40:37.107Z,23.4
2023-04-23T14:41:43.995Z,23.5
2023-04-23T14:42:51.091Z,23.6
2023-04-23T14:43:58.709Z,23.4
2023-04-23T14:45:05.547Z,23.5
2023-04-23T14:46:13.404Z,23.5
2023-04-23T14:47:21.003Z,23.5
2023-04-23T14:48:29.884Z,23.4
2023-04-23T14:49:36.900Z,23.4
2023-04-23T14:50:43.618Z,23.3
2023-04-23T14:51:50.451Z,23
2023-04-23T14:52:57.267Z,23.1
2023-04-23T14:54:04.164Z,23
2023-04-23T14:55:10.970Z,23.1
2023-04-23T14:56:17.944Z,23.2
2023-04-23T14:57:24.829Z,23.3
2023-04-23T14:58:31.675Z,23.3
2023-04-23T14:59:38.629Z,23.4
2023-04-23T15:00:45.440Z,23.4
2023-04-23T15:01:52.274Z,23.3
2023-04-23T15:02:59.079Z,23.3
2023-04-23T15:04:06.045Z,23.4
2023-04-23T15:05:12.860Z,23.4